sensor_id;sensor_type;location;lat;lon;timestamp;P1;durP1;ratioP1;P2;durP2;ratioP2
52272;SDS011;38227;50.942;4.016;2023-04-24T00:01:50;9.35;;;5.78;;
52272;SDS011;38227;50.942;4.016;2023-04-24T00:04:20;11.32;;;6.45;;
52272;SDS011;38227;50.942;4.016;2023-04-24T00:06:51;12.60;;;6.57;;
52272;SDS011;38227;50.942;4.016;2023-04-24T00:09:23;10.80;;;6.30;;
52272;SDS011;38227;50.942;4.016;2023-04-24T00:11:54;12.88;;;6.50;;
52272;SDS011;38227;50.942;4.016;2023-04-24T00:14:24;10.27;;;6.12;;
52272;SDS011;38227;50.942;4.016;2023-04-24T00:17:02;11.93;;;6.57;;
52272;SDS011;38227;50.942;4.016;2023-04-24T00:19:40;11.73;;;6.45;;
52272;SDS011;38227;50.942;4.016;2023-04-24T00:22:10;10.77;;;6.07;;
52272;SDS011;38227;50.942;4.016;2023-04-24T00:24:40;11.43;;;6.32;;
52272;SDS011;38227;50.942;4.016;2023-04-24T00:27:07;14.02;;;7.18;;
52272;SDS011;38227;50.942;4.016;2023-04-24T00:29:37;11.85;;;6.57;;
52272;SDS011;38227;50.942;4.016;2023-04-24T00:32:14;9.38;;;6.25;;
52272;SDS011;38227;50.942;4.016;2023-04-24T00:34:43;12.55;;;6.28;;
52272;SDS011;38227;50.942;4.016;2023-04-24T00:37:20;11.95;;;6.50;;
52272;SDS011;38227;50.942;4.016;2023-04-24T00:39:49;11.02;;;6.70;;
52272;SDS011;38227;50.942;4.016;2023-04-24T00:42:20;12.73;;;6.75;;
52272;SDS011;38227;50.942;4.016;2023-04-24T00:44:48;12.10;;;6.72;;
52272;SDS011;38227;50.942;4.016;2023-04-24T00:47:18;9.63;;;6.28;;
52272;SDS011;38227;50.942;4.016;2023-04-24T00:49:47;11.55;;;6.65;;
52272;SDS011;38227;50.942;4.016;2023-04-24T00:52:17;9.13;;;5.93;;
52272;SDS011;38227;50.942;4.016;2023-04-24T00:54:49;12.85;;;6.70;;
52272;SDS011;38227;50.942;4.016;2023-04-24T00:57:18;14.15;;;6.53;;
52272;SDS011;38227;50.942;4.016;2023-04-24T00:59:48;10.20;;;6.37;;
52272;SDS011;38227;50.942;4.016;2023-04-24T01:02:18;9.43;;;6.10;;
52272;SDS011;38227;50.942;4.016;2023-04-24T01:04:49;11.10;;;6.32;;
52272;SDS011;38227;50.942;4.016;2023-04-24T01:07:20;13.18;;;6.22;;
52272;SDS011;38227;50.942;4.016;2023-04-24T01:09:49;11.00;;;5.82;;
52272;SDS011;38227;50.942;4.016;2023-04-24T01:12:18;10.25;;;5.70;;
52272;SDS011;38227;50.942;4.016;2023-04-24T01:14:50;11.07;;;5.97;;
52272;SDS011;38227;50.942;4.016;2023-04-24T01:17:22;8.57;;;4.85;;
52272;SDS011;38227;50.942;4.016;2023-04-24T01:19:53;8.93;;;5.22;;
52272;SDS011;38227;50.942;4.016;2023-04-24T01:22:23;6.80;;;4.75;;
52272;SDS011;38227;50.942;4.016;2023-04-24T01:24:54;7.20;;;4.35;;
52272;SDS011;38227;50.942;4.016;2023-04-24T01:27:24;8.60;;;4.10;;
52272;SDS011;38227;50.942;4.016;2023-04-24T01:29:56;6.03;;;4.05;;
52272;SDS011;38227;50.942;4.016;2023-04-24T01:32:29;7.35;;;4.53;;
52272;SDS011;38227;50.942;4.016;2023-04-24T01:35:06;6.05;;;4.30;;
52272;SDS011;38227;50.942;4.016;2023-04-24T01:37:37;7.30;;;3.58;;
52272;SDS011;38227;50.942;4.016;2023-04-24T01:40:08;5.85;;;3.65;;
52272;SDS011;38227;50.942;4.016;2023-04-24T01:42:37;6.07;;;3.30;;
52272;SDS011;38227;50.942;4.016;2023-04-24T01:45:06;5.75;;;3.55;;
52272;SDS011;38227;50.942;4.016;2023-04-24T01:47:37;5.45;;;3.65;;
52272;SDS011;38227;50.942;4.016;2023-04-24T01:50:07;5.78;;;3.70;;
52272;SDS011;38227;50.942;4.016;2023-04-24T01:52:36;6.22;;;3.92;;
52272;SDS011;38227;50.942;4.016;2023-04-24T01:55:05;8.10;;;4.43;;
52272;SDS011;38227;50.942;4.016;2023-04-24T01:57:37;7.85;;;4.70;;
52272;SDS011;38227;50.942;4.016;2023-04-24T02:00:06;11.93;;;5.00;;
52272;SDS011;38227;50.942;4.016;2023-04-24T02:02:39;7.43;;;4.93;;
52272;SDS011;38227;50.942;4.016;2023-04-24T02:05:08;8.15;;;5.15;;
52272;SDS011;38227;50.942;4.016;2023-04-24T02:07:37;9.10;;;5.45;;
52272;SDS011;38227;50.942;4.016;2023-04-24T02:10:05;8.57;;;5.55;;
52272;SDS011;38227;50.942;4.016;2023-04-24T02:12:36;9.20;;;5.68;;
52272;SDS011;38227;50.942;4.016;2023-04-24T02:15:04;9.30;;;5.53;;
52272;SDS011;38227;50.942;4.016;2023-04-24T02:17:33;9.98;;;5.95;;
52272;SDS011;38227;50.942;4.016;2023-04-24T02:20:02;10.13;;;5.53;;
52272;SDS011;38227;50.942;4.016;2023-04-24T02:22:34;9.50;;;5.60;;
52272;SDS011;38227;50.942;4.016;2023-04-24T02:25:02;9.88;;;5.97;;
52272;SDS011;38227;50.942;4.016;2023-04-24T02:27:32;11.80;;;6.53;;
52272;SDS011;38227;50.942;4.016;2023-04-24T02:30:04;10.90;;;6.60;;
52272;SDS011;38227;50.942;4.016;2023-04-24T02:32:35;11.05;;;5.53;;
52272;SDS011;38227;50.942;4.016;2023-04-24T02:35:04;9.48;;;6.00;;
52272;SDS011;38227;50.942;4.016;2023-04-24T02:37:33;9.15;;;5.55;;
52272;SDS011;38227;50.942;4.016;2023-04-24T02:40:04;10.50;;;6.20;;
52272;SDS011;38227;50.942;4.016;2023-04-24T02:42:38;9.65;;;5.75;;
52272;SDS011;38227;50.942;4.016;2023-04-24T02:45:09;10.43;;;5.37;;
52272;SDS011;38227;50.942;4.016;2023-04-24T02:47:38;8.75;;;5.03;;
52272;SDS011;38227;50.942;4.016;2023-04-24T02:50:08;10.23;;;4.93;;
52272;SDS011;38227;50.942;4.016;2023-04-24T02:52:40;8.52;;;5.10;;
52272;SDS011;38227;50.942;4.016;2023-04-24T02:55:09;8.27;;;4.82;;
52272;SDS011;38227;50.942;4.016;2023-04-24T02:57:40;9.63;;;5.50;;
52272;SDS011;38227;50.942;4.016;2023-04-24T03:00:08;12.85;;;5.87;;
52272;SDS011;38227;50.942;4.016;2023-04-24T03:02:39;8.45;;;5.00;;
52272;SDS011;38227;50.942;4.016;2023-04-24T03:05:08;8.90;;;5.15;;
52272;SDS011;38227;50.942;4.016;2023-04-24T03:07:40;9.02;;;4.95;;
52272;SDS011;38227;50.942;4.016;2023-04-24T03:10:08;6.90;;;4.50;;
52272;SDS011;38227;50.942;4.016;2023-04-24T03:12:38;7.90;;;4.35;;
52272;SDS011;38227;50.942;4.016;2023-04-24T03:15:09;7.25;;;4.57;;
52272;SDS011;38227;50.942;4.016;2023-04-24T03:17:39;6.30;;;3.92;;
52272;SDS011;38227;50.942;4.016;2023-04-24T03:20:11;7.00;;;4.15;;
52272;SDS011;38227;50.942;4.016;2023-04-24T03:22:43;5.93;;;3.95;;
52272;SDS011;38227;50.942;4.016;2023-04-24T03:25:14;5.60;;;3.78;;
52272;SDS011;38227;50.942;4.016;2023-04-24T03:27:43;6.72;;;3.95;;
52272;SDS011;38227;50.942;4.016;2023-04-24T03:30:14;7.95;;;3.97;;
52272;SDS011;38227;50.942;4.016;2023-04-24T03:32:44;6.00;;;3.92;;
52272;SDS011;38227;50.942;4.016;2023-04-24T03:35:20;4.90;;;3.62;;
52272;SDS011;38227;50.942;4.016;2023-04-24T03:37:50;5.30;;;3.40;;
52272;SDS011;38227;50.942;4.016;2023-04-24T03:40:20;5.18;;;3.05;;
52272;SDS011;38227;50.942;4.016;2023-04-24T03:42:50;5.80;;;3.08;;
52272;SDS011;38227;50.942;4.016;2023-04-24T03:45:21;6.40;;;3.62;;
52272;SDS011;38227;50.942;4.016;2023-04-24T03:47:50;6.40;;;3.15;;
52272;SDS011;38227;50.942;4.016;2023-04-24T03:50:20;4.10;;;3.05;;
52272;SDS011;38227;50.942;4.016;2023-04-24T03:52:58;4.95;;;3.22;;
52272;SDS011;38227;50.942;4.016;2023-04-24T03:55:28;4.18;;;3.08;;
52272;SDS011;38227;50.942;4.016;2023-04-24T03:57:58;4.10;;;2.90;;
52272;SDS011;38227;50.942;4.016;2023-04-24T04:00:32;4.28;;;2.95;;
52272;SDS011;38227;50.942;4.016;2023-04-24T04:03:04;4.07;;;2.85;;
52272;SDS011;38227;50.942;4.016;2023-04-24T04:05:41;4.20;;;2.80;;
52272;SDS011;38227;50.942;4.016;2023-04-24T04:08:11;5.20;;;3.42;;
52272;SDS011;38227;50.942;4.016;2023-04-24T04:10:47;9.18;;;3.50;;
52272;SDS011;38227;50.942;4.016;2023-04-24T04:13:16;6.22;;;3.85;;
52272;SDS011;38227;50.942;4.016;2023-04-24T04:15:45;6.65;;;4.03;;
52272;SDS011;38227;50.942;4.016;2023-04-24T04:18:16;6.40;;;4.30;;
52272;SDS011;38227;50.942;4.016;2023-04-24T04:20:45;6.80;;;4.30;;
52272;SDS011;38227;50.942;4.016;2023-04-24T04:23:22;9.43;;;4.03;;
52272;SDS011;38227;50.942;4.016;2023-04-24T04:25:50;9.05;;;5.03;;
52272;SDS011;38227;50.942;4.016;2023-04-24T04:28:19;9.05;;;5.40;;
52272;SDS011;38227;50.942;4.016;2023-04-24T04:30:47;8.40;;;4.78;;
52272;SDS011;38227;50.942;4.016;2023-04-24T04:33:19;8.43;;;5.15;;
52272;SDS011;38227;50.942;4.016;2023-04-24T04:35:49;8.55;;;5.47;;
52272;SDS011;38227;50.942;4.016;2023-04-24T04:38:22;9.13;;;5.50;;
52272;SDS011;38227;50.942;4.016;2023-04-24T04:40:51;9.25;;;5.40;;
52272;SDS011;38227;50.942;4.016;2023-04-24T04:43:31;8.65;;;5.68;;
52272;SDS011;38227;50.942;4.016;2023-04-24T04:46:03;8.75;;;5.65;;
52272;SDS011;38227;50.942;4.016;2023-04-24T04:48:33;10.57;;;5.28;;
52272;SDS011;38227;50.942;4.016;2023-04-24T04:51:03;9.55;;;5.78;;
52272;SDS011;38227;50.942;4.016;2023-04-24T04:53:33;8.40;;;5.10;;
52272;SDS011;38227;50.942;4.016;2023-04-24T04:56:04;8.77;;;5.30;;
52272;SDS011;38227;50.942;4.016;2023-04-24T04:58:32;10.68;;;5.93;;
52272;SDS011;38227;50.942;4.016;2023-04-24T05:01:01;9.23;;;5.65;;
52272;SDS011;38227;50.942;4.016;2023-04-24T05:03:31;12.30;;;6.20;;
52272;SDS011;38227;50.942;4.016;2023-04-24T05:06:03;11.63;;;6.55;;
52272;SDS011;38227;50.942;4.016;2023-04-24T05:08:32;9.60;;;5.82;;
52272;SDS011;38227;50.942;4.016;2023-04-24T05:11:00;9.82;;;5.68;;
52272;SDS011;38227;50.942;4.016;2023-04-24T05:13:29;9.88;;;6.37;;
52272;SDS011;38227;50.942;4.016;2023-04-24T05:16:00;12.02;;;6.37;;
52272;SDS011;38227;50.942;4.016;2023-04-24T05:18:30;9.65;;;6.15;;
52272;SDS011;38227;50.942;4.016;2023-04-24T05:21:00;9.55;;;5.50;;
52272;SDS011;38227;50.942;4.016;2023-04-24T05:23:32;11.27;;;6.07;;
52272;SDS011;38227;50.942;4.016;2023-04-24T05:26:08;12.10;;;6.18;;
52272;SDS011;38227;50.942;4.016;2023-04-24T05:28:36;12.70;;;5.87;;
52272;SDS011;38227;50.942;4.016;2023-04-24T05:31:05;10.90;;;6.15;;
52272;SDS011;38227;50.942;4.016;2023-04-24T05:33:33;8.52;;;5.40;;
52272;SDS011;38227;50.942;4.016;2023-04-24T05:36:01;10.63;;;6.10;;
52272;SDS011;38227;50.942;4.016;2023-04-24T05:38:31;12.55;;;6.55;;
52272;SDS011;38227;50.942;4.016;2023-04-24T05:41:02;10.13;;;5.80;;
52272;SDS011;38227;50.942;4.016;2023-04-24T05:43:33;10.65;;;6.55;;
52272;SDS011;38227;50.942;4.016;2023-04-24T05:46:11;10.88;;;6.32;;
52272;SDS011;38227;50.942;4.016;2023-04-24T05:48:41;10.80;;;6.55;;
52272;SDS011;38227;50.942;4.016;2023-04-24T05:51:09;11.70;;;5.85;;
52272;SDS011;38227;50.942;4.016;2023-04-24T05:53:39;11.02;;;5.87;;
52272;SDS011;38227;50.942;4.016;2023-04-24T05:56:07;10.98;;;6.28;;
52272;SDS011;38227;50.942;4.016;2023-04-24T05:58:35;10.77;;;6.43;;
52272;SDS011;38227;50.942;4.016;2023-04-24T06:01:09;12.98;;;6.93;;
52272;SDS011;38227;50.942;4.016;2023-04-24T06:03:38;14.05;;;6.65;;
52272;SDS011;38227;50.942;4.016;2023-04-24T06:06:12;14.07;;;7.45;;
52272;SDS011;38227;50.942;4.016;2023-04-24T06:08:40;13.27;;;6.95;;
52272;SDS011;38227;50.942;4.016;2023-04-24T06:11:10;12.35;;;7.37;;
52272;SDS011;38227;50.942;4.016;2023-04-24T06:13:39;14.18;;;7.55;;
52272;SDS011;38227;50.942;4.016;2023-04-24T06:16:17;13.98;;;7.57;;
52272;SDS011;38227;50.942;4.016;2023-04-24T06:18:44;12.02;;;7.35;;
52272;SDS011;38227;50.942;4.016;2023-04-24T06:21:15;12.82;;;6.97;;
52272;SDS011;38227;50.942;4.016;2023-04-24T06:23:43;11.82;;;7.07;;
52272;SDS011;38227;50.942;4.016;2023-04-24T06:26:14;14.23;;;7.55;;
52272;SDS011;38227;50.942;4.016;2023-04-24T06:28:45;17.30;;;8.68;;
52272;SDS011;38227;50.942;4.016;2023-04-24T06:31:15;17.95;;;8.75;;
52272;SDS011;38227;50.942;4.016;2023-04-24T06:33:50;14.15;;;7.90;;
52272;SDS011;38227;50.942;4.016;2023-04-24T06:36:19;20.12;;;8.40;;
52272;SDS011;38227;50.942;4.016;2023-04-24T06:38:47;15.82;;;8.77;;
52272;SDS011;38227;50.942;4.016;2023-04-24T06:41:17;13.52;;;7.75;;
52272;SDS011;38227;50.942;4.016;2023-04-24T06:43:48;16.95;;;9.10;;
52272;SDS011;38227;50.942;4.016;2023-04-24T06:46:16;17.42;;;8.48;;
52272;SDS011;38227;50.942;4.016;2023-04-24T06:48:48;13.68;;;7.47;;
52272;SDS011;38227;50.942;4.016;2023-04-24T06:51:16;17.23;;;7.62;;
52272;SDS011;38227;50.942;4.016;2023-04-24T06:53:46;16.35;;;8.00;;
52272;SDS011;38227;50.942;4.016;2023-04-24T06:56:19;13.85;;;7.00;;
52272;SDS011;38227;50.942;4.016;2023-04-24T06:58:56;15.55;;;6.95;;
52272;SDS011;38227;50.942;4.016;2023-04-24T07:01:24;15.85;;;6.95;;
52272;SDS011;38227;50.942;4.016;2023-04-24T07:03:54;12.00;;;6.80;;
52272;SDS011;38227;50.942;4.016;2023-04-24T07:06:26;12.65;;;6.78;;
52272;SDS011;38227;50.942;4.016;2023-04-24T07:08:57;12.80;;;6.32;;
52272;SDS011;38227;50.942;4.016;2023-04-24T07:11:40;11.75;;;5.85;;
52272;SDS011;38227;50.942;4.016;2023-04-24T07:14:19;11.05;;;5.90;;
52272;SDS011;38227;50.942;4.016;2023-04-24T07:16:50;13.43;;;6.35;;
52272;SDS011;38227;50.942;4.016;2023-04-24T07:19:21;11.55;;;6.37;;
52272;SDS011;38227;50.942;4.016;2023-04-24T07:21:58;10.50;;;6.05;;
52272;SDS011;38227;50.942;4.016;2023-04-24T07:24:29;13.88;;;6.22;;
52272;SDS011;38227;50.942;4.016;2023-04-24T07:26:59;13.02;;;5.82;;
52272;SDS011;38227;50.942;4.016;2023-04-24T07:29:29;12.80;;;6.18;;
52272;SDS011;38227;50.942;4.016;2023-04-24T07:32:06;12.45;;;6.00;;
52272;SDS011;38227;50.942;4.016;2023-04-24T07:34:34;12.23;;;5.37;;
52272;SDS011;38227;50.942;4.016;2023-04-24T07:37:02;8.43;;;4.62;;
52272;SDS011;38227;50.942;4.016;2023-04-24T07:39:32;8.95;;;3.70;;
52272;SDS011;38227;50.942;4.016;2023-04-24T07:42:03;6.68;;;3.40;;
52272;SDS011;38227;50.942;4.016;2023-04-24T07:44:34;7.07;;;4.22;;
52272;SDS011;38227;50.942;4.016;2023-04-24T07:47:12;7.57;;;3.70;;
52272;SDS011;38227;50.942;4.016;2023-04-24T07:49:43;7.37;;;3.78;;
52272;SDS011;38227;50.942;4.016;2023-04-24T07:52:13;9.98;;;5.45;;
52272;SDS011;38227;50.942;4.016;2023-04-24T07:54:46;8.90;;;3.83;;
52272;SDS011;38227;50.942;4.016;2023-04-24T07:57:24;6.05;;;3.50;;
52272;SDS011;38227;50.942;4.016;2023-04-24T07:59:56;5.18;;;3.35;;
52272;SDS011;38227;50.942;4.016;2023-04-24T08:02:27;8.73;;;3.87;;
52272;SDS011;38227;50.942;4.016;2023-04-24T08:05:04;9.52;;;4.00;;
52272;SDS011;38227;50.942;4.016;2023-04-24T08:07:34;25.48;;;11.35;;
52272;SDS011;38227;50.942;4.016;2023-04-24T08:10:02;9.43;;;3.25;;
52272;SDS011;38227;50.942;4.016;2023-04-24T08:12:35;7.05;;;3.03;;
52272;SDS011;38227;50.942;4.016;2023-04-24T08:15:03;6.75;;;2.83;;
52272;SDS011;38227;50.942;4.016;2023-04-24T08:17:32;6.78;;;3.50;;
52272;SDS011;38227;50.942;4.016;2023-04-24T08:20:00;10.15;;;3.22;;
52272;SDS011;38227;50.942;4.016;2023-04-24T08:22:31;6.57;;;3.12;;
52272;SDS011;38227;50.942;4.016;2023-04-24T08:25:00;5.68;;;2.62;;
52272;SDS011;38227;50.942;4.016;2023-04-24T08:27:29;4.68;;;2.42;;
52272;SDS011;38227;50.942;4.016;2023-04-24T08:30:07;2.10;;;1.77;;
52272;SDS011;38227;50.942;4.016;2023-04-24T08:32:36;2.05;;;1.73;;
52272;SDS011;38227;50.942;4.016;2023-04-24T08:35:15;3.67;;;1.75;;
52272;SDS011;38227;50.942;4.016;2023-04-24T08:37:52;2.70;;;1.52;;
52272;SDS011;38227;50.942;4.016;2023-04-24T08:40:22;1.92;;;1.40;;
52272;SDS011;38227;50.942;4.016;2023-04-24T08:42:57;2.47;;;1.73;;
52272;SDS011;38227;50.942;4.016;2023-04-24T08:45:26;2.05;;;1.45;;
52272;SDS011;38227;50.942;4.016;2023-04-24T08:47:54;4.22;;;1.35;;
52272;SDS011;38227;50.942;4.016;2023-04-24T08:50:25;3.37;;;1.33;;
52272;SDS011;38227;50.942;4.016;2023-04-24T08:52:56;4.57;;;1.27;;
52272;SDS011;38227;50.942;4.016;2023-04-24T08:55:27;1.85;;;1.23;;
52272;SDS011;38227;50.942;4.016;2023-04-24T08:58:01;2.10;;;1.23;;
52272;SDS011;38227;50.942;4.016;2023-04-24T09:00:30;3.25;;;1.42;;
52272;SDS011;38227;50.942;4.016;2023-04-24T09:03:00;4.03;;;1.62;;
52272;SDS011;38227;50.942;4.016;2023-04-24T09:05:31;2.58;;;1.50;;
52272;SDS011;38227;50.942;4.016;2023-04-24T09:08:12;4.03;;;1.98;;
52272;SDS011;38227;50.942;4.016;2023-04-24T09:10:44;2.83;;;1.60;;
52272;SDS011;38227;50.942;4.016;2023-04-24T09:13:12;2.92;;;1.70;;
52272;SDS011;38227;50.942;4.016;2023-04-24T09:15:42;6.22;;;1.60;;
52272;SDS011;38227;50.942;4.016;2023-04-24T09:18:15;2.35;;;1.30;;
52272;SDS011;38227;50.942;4.016;2023-04-24T09:23:37;2.45;;;1.25;;
52272;SDS011;38227;50.942;4.016;2023-04-24T09:26:06;1.90;;;1.27;;
52272;SDS011;38227;50.942;4.016;2023-04-24T09:28:46;3.58;;;1.35;;
52272;SDS011;38227;50.942;4.016;2023-04-24T09:31:18;4.25;;;1.58;;
52272;SDS011;38227;50.942;4.016;2023-04-24T09:33:54;2.05;;;1.48;;
52272;SDS011;38227;50.942;4.016;2023-04-24T09:36:28;1.42;;;1.20;;
52272;SDS011;38227;50.942;4.016;2023-04-24T09:39:04;2.70;;;1.50;;
52272;SDS011;38227;50.942;4.016;2023-04-24T09:41:53;2.65;;;1.70;;
52272;SDS011;38227;50.942;4.016;2023-04-24T09:44:24;2.25;;;1.50;;
52272;SDS011;38227;50.942;4.016;2023-04-24T09:46:58;3.22;;;1.60;;
52272;SDS011;38227;50.942;4.016;2023-04-24T09:49:27;2.03;;;1.67;;
52272;SDS011;38227;50.942;4.016;2023-04-24T09:54:54;2.62;;;1.67;;
52272;SDS011;38227;50.942;4.016;2023-04-24T09:57:26;3.12;;;1.67;;
52272;SDS011;38227;50.942;4.016;2023-04-24T09:59:56;1.95;;;1.45;;
52272;SDS011;38227;50.942;4.016;2023-04-24T10:02:29;5.32;;;1.75;;
52272;SDS011;38227;50.942;4.016;2023-04-24T10:04:59;1.70;;;1.40;;
52272;SDS011;38227;50.942;4.016;2023-04-24T10:07:29;2.60;;;1.10;;
52272;SDS011;38227;50.942;4.016;2023-04-24T10:10:13;2.75;;;1.20;;
52272;SDS011;38227;50.942;4.016;2023-04-24T10:12:41;1.87;;;1.40;;
52272;SDS011;38227;50.942;4.016;2023-04-24T10:15:10;2.37;;;1.30;;
52272;SDS011;38227;50.942;4.016;2023-04-24T10:17:40;3.15;;;1.60;;
52272;SDS011;38227;50.942;4.016;2023-04-24T10:20:08;1.67;;;1.20;;
52272;SDS011;38227;50.942;4.016;2023-04-24T10:22:37;2.37;;;1.48;;
52272;SDS011;38227;50.942;4.016;2023-04-24T10:25:06;1.77;;;1.30;;
52272;SDS011;38227;50.942;4.016;2023-04-24T10:27:35;2.15;;;1.70;;
52272;SDS011;38227;50.942;4.016;2023-04-24T10:30:16;2.22;;;1.30;;
52272;SDS011;38227;50.942;4.016;2023-04-24T10:32:47;1.45;;;1.23;;
52272;SDS011;38227;50.942;4.016;2023-04-24T10:35:16;3.95;;;1.75;;
52272;SDS011;38227;50.942;4.016;2023-04-24T10:37:58;2.03;;;1.40;;
52272;SDS011;38227;50.942;4.016;2023-04-24T10:40:32;2.12;;;1.40;;
52272;SDS011;38227;50.942;4.016;2023-04-24T10:43:02;2.67;;;1.70;;
52272;SDS011;38227;50.942;4.016;2023-04-24T10:45:36;2.75;;;1.70;;
52272;SDS011;38227;50.942;4.016;2023-04-24T10:48:06;2.75;;;1.55;;
52272;SDS011;38227;50.942;4.016;2023-04-24T10:50:50;3.10;;;1.70;;
52272;SDS011;38227;50.942;4.016;2023-04-24T10:53:22;4.37;;;1.95;;
52272;SDS011;38227;50.942;4.016;2023-04-24T10:58:49;4.68;;;2.03;;
52272;SDS011;38227;50.942;4.016;2023-04-24T11:01:29;2.20;;;1.83;;
52272;SDS011;38227;50.942;4.016;2023-04-24T11:04:01;2.72;;;1.52;;
52272;SDS011;38227;50.942;4.016;2023-04-24T11:06:33;2.10;;;1.90;;
52272;SDS011;38227;50.942;4.016;2023-04-24T11:09:06;4.53;;;1.85;;
52272;SDS011;38227;50.942;4.016;2023-04-24T11:11:38;2.87;;;2.05;;
52272;SDS011;38227;50.942;4.016;2023-04-24T11:14:16;3.85;;;2.08;;
52272;SDS011;38227;50.942;4.016;2023-04-24T11:16:54;3.45;;;1.90;;
52272;SDS011;38227;50.942;4.016;2023-04-24T11:19:25;2.28;;;1.77;;
52272;SDS011;38227;50.942;4.016;2023-04-24T11:21:59;2.83;;;1.85;;
52272;SDS011;38227;50.942;4.016;2023-04-24T11:27:20;3.17;;;1.80;;
52272;SDS011;38227;50.942;4.016;2023-04-24T11:30:00;1.67;;;1.55;;
52272;SDS011;38227;50.942;4.016;2023-04-24T11:35:22;2.67;;;1.98;;
52272;SDS011;38227;50.942;4.016;2023-04-24T11:37:56;2.87;;;2.08;;
52272;SDS011;38227;50.942;4.016;2023-04-24T11:40:28;4.30;;;1.83;;
52272;SDS011;38227;50.942;4.016;2023-04-24T11:42:59;2.87;;;1.95;;
52272;SDS011;38227;50.942;4.016;2023-04-24T11:45:28;2.30;;;2.03;;
52272;SDS011;38227;50.942;4.016;2023-04-24T11:47:56;2.70;;;1.90;;
52272;SDS011;38227;50.942;4.016;2023-04-24T11:50:27;3.25;;;1.73;;
52272;SDS011;38227;50.942;4.016;2023-04-24T11:52:55;2.80;;;1.80;;
52272;SDS011;38227;50.942;4.016;2023-04-24T11:55:26;2.53;;;1.80;;
52272;SDS011;38227;50.942;4.016;2023-04-24T11:57:58;2.28;;;1.90;;
52272;SDS011;38227;50.942;4.016;2023-04-24T12:00:36;2.47;;;1.80;;
52272;SDS011;38227;50.942;4.016;2023-04-24T12:03:10;3.45;;;1.87;;
52272;SDS011;38227;50.942;4.016;2023-04-24T12:05:38;3.85;;;2.20;;
52272;SDS011;38227;50.942;4.016;2023-04-24T12:08:07;3.37;;;1.80;;
52272;SDS011;38227;50.942;4.016;2023-04-24T12:10:35;2.53;;;1.90;;
52272;SDS011;38227;50.942;4.016;2023-04-24T12:13:04;3.30;;;1.70;;
52272;SDS011;38227;50.942;4.016;2023-04-24T12:15:39;2.85;;;1.95;;
52272;SDS011;38227;50.942;4.016;2023-04-24T12:18:11;2.15;;;1.67;;
52272;SDS011;38227;50.942;4.016;2023-04-24T12:20:42;3.92;;;1.73;;
52272;SDS011;38227;50.942;4.016;2023-04-24T12:23:10;1.62;;;1.48;;
52272;SDS011;38227;50.942;4.016;2023-04-24T12:25:40;3.03;;;1.50;;
52272;SDS011;38227;50.942;4.016;2023-04-24T12:28:11;2.78;;;1.73;;
52272;SDS011;38227;50.942;4.016;2023-04-24T12:30:48;2.10;;;1.45;;
52272;SDS011;38227;50.942;4.016;2023-04-24T12:33:17;1.65;;;1.25;;
52272;SDS011;38227;50.942;4.016;2023-04-24T12:35:45;1.40;;;1.23;;
52272;SDS011;38227;50.942;4.016;2023-04-24T12:38:15;3.90;;;1.42;;
52272;SDS011;38227;50.942;4.016;2023-04-24T12:40:43;1.55;;;0.90;;
52272;SDS011;38227;50.942;4.016;2023-04-24T12:43:13;1.65;;;1.20;;
52272;SDS011;38227;50.942;4.016;2023-04-24T12:45:41;1.62;;;1.12;;
52272;SDS011;38227;50.942;4.016;2023-04-24T12:48:12;2.83;;;1.20;;
52272;SDS011;38227;50.942;4.016;2023-04-24T12:50:42;2.25;;;1.23;;
52272;SDS011;38227;50.942;4.016;2023-04-24T12:53:10;1.75;;;1.15;;
52272;SDS011;38227;50.942;4.016;2023-04-24T12:55:43;2.30;;;0.88;;
52272;SDS011;38227;50.942;4.016;2023-04-24T12:58:23;2.00;;;1.20;;
52272;SDS011;38227;50.942;4.016;2023-04-24T13:00:51;1.33;;;1.10;;
52272;SDS011;38227;50.942;4.016;2023-04-24T13:03:20;1.42;;;1.17;;
52272;SDS011;38227;50.942;4.016;2023-04-24T13:05:57;1.50;;;1.25;;
52272;SDS011;38227;50.942;4.016;2023-04-24T13:08:26;1.00;;;0.90;;
52272;SDS011;38227;50.942;4.016;2023-04-24T13:11:05;2.78;;;0.88;;
52272;SDS011;38227;50.942;4.016;2023-04-24T13:13:36;2.67;;;1.05;;
52272;SDS011;38227;50.942;4.016;2023-04-24T13:16:04;1.92;;;0.80;;
52272;SDS011;38227;50.942;4.016;2023-04-24T13:18:33;0.70;;;0.70;;
52272;SDS011;38227;50.942;4.016;2023-04-24T13:21:00;1.25;;;0.60;;
52272;SDS011;38227;50.942;4.016;2023-04-24T13:23:29;1.05;;;0.95;;
52272;SDS011;38227;50.942;4.016;2023-04-24T13:25:58;1.52;;;0.80;;
52272;SDS011;38227;50.942;4.016;2023-04-24T13:28:28;1.85;;;0.90;;
52272;SDS011;38227;50.942;4.016;2023-04-24T13:30:56;1.95;;;0.80;;
52272;SDS011;38227;50.942;4.016;2023-04-24T13:33:24;0.80;;;0.70;;
52272;SDS011;38227;50.942;4.016;2023-04-24T13:35:52;1.60;;;1.00;;
52272;SDS011;38227;50.942;4.016;2023-04-24T13:38:21;2.40;;;0.70;;
52272;SDS011;38227;50.942;4.016;2023-04-24T13:40:49;1.20;;;0.70;;
52272;SDS011;38227;50.942;4.016;2023-04-24T13:43:18;1.55;;;0.85;;
52272;SDS011;38227;50.942;4.016;2023-04-24T13:47:53;1.15;;;1.00;;
52272;SDS011;38227;50.942;4.016;2023-04-24T13:50:31;1.35;;;0.70;;
52272;SDS011;38227;50.942;4.016;2023-04-24T13:53:01;1.23;;;0.88;;
52272;SDS011;38227;50.942;4.016;2023-04-24T13:55:29;0.93;;;0.90;;
52272;SDS011;38227;50.942;4.016;2023-04-24T13:57:58;1.45;;;0.80;;
52272;SDS011;38227;50.942;4.016;2023-04-24T14:00:28;1.35;;;0.73;;
52272;SDS011;38227;50.942;4.016;2023-04-24T14:02:59;0.80;;;0.60;;
52272;SDS011;38227;50.942;4.016;2023-04-24T14:05:29;0.77;;;0.62;;
52272;SDS011;38227;50.942;4.016;2023-04-24T14:07:57;2.92;;;0.90;;
52272;SDS011;38227;50.942;4.016;2023-04-24T14:10:26;0.60;;;0.60;;
52272;SDS011;38227;50.942;4.016;2023-04-24T14:12:55;0.75;;;0.55;;
52272;SDS011;38227;50.942;4.016;2023-04-24T14:15:24;0.60;;;0.57;;
52272;SDS011;38227;50.942;4.016;2023-04-24T14:17:56;1.00;;;0.50;;
52272;SDS011;38227;50.942;4.016;2023-04-24T14:20:24;1.10;;;0.70;;
52272;SDS011;38227;50.942;4.016;2023-04-24T14:22:52;1.65;;;0.68;;
52272;SDS011;38227;50.942;4.016;2023-04-24T14:25:23;1.05;;;0.62;;
52272;SDS011;38227;50.942;4.016;2023-04-24T14:27:51;2.67;;;1.90;;
52272;SDS011;38227;50.942;4.016;2023-04-24T14:30:19;0.95;;;0.60;;
52272;SDS011;38227;50.942;4.016;2023-04-24T14:32:48;0.68;;;0.45;;
52272;SDS011;38227;50.942;4.016;2023-04-24T14:35:17;1.67;;;0.60;;
52272;SDS011;38227;50.942;4.016;2023-04-24T14:37:45;0.75;;;0.55;;
52272;SDS011;38227;50.942;4.016;2023-04-24T14:40:14;0.93;;;0.50;;
52272;SDS011;38227;50.942;4.016;2023-04-24T14:42:44;1.00;;;0.50;;
52272;SDS011;38227;50.942;4.016;2023-04-24T14:45:15;0.75;;;0.52;;
52272;SDS011;38227;50.942;4.016;2023-04-24T14:47:43;1.62;;;0.60;;
52272;SDS011;38227;50.942;4.016;2023-04-24T14:50:16;0.82;;;0.50;;
52272;SDS011;38227;50.942;4.016;2023-04-24T14:52:44;0.60;;;0.40;;
52272;SDS011;38227;50.942;4.016;2023-04-24T14:55:13;0.80;;;0.60;;
52272;SDS011;38227;50.942;4.016;2023-04-24T14:57:41;1.35;;;0.50;;
52272;SDS011;38227;50.942;4.016;2023-04-24T15:00:09;0.55;;;0.52;;
52272;SDS011;38227;50.942;4.016;2023-04-24T15:02:42;0.85;;;0.45;;
52272;SDS011;38227;50.942;4.016;2023-04-24T15:05:20;0.90;;;0.47;;
52272;SDS011;38227;50.942;4.016;2023-04-24T15:07:51;0.37;;;0.37;;
52272;SDS011;38227;50.942;4.016;2023-04-24T15:10:23;0.32;;;0.32;;
52272;SDS011;38227;50.942;4.016;2023-04-24T15:12:54;1.40;;;0.70;;
52272;SDS011;38227;50.942;4.016;2023-04-24T15:15:24;0.43;;;0.43;;
52272;SDS011;38227;50.942;4.016;2023-04-24T15:17:54;1.37;;;0.50;;
52272;SDS011;38227;50.942;4.016;2023-04-24T15:20:31;2.03;;;0.50;;
52272;SDS011;38227;50.942;4.016;2023-04-24T15:22:59;2.35;;;0.50;;